sensor_id;sensor_type;location;lat;lon;timestamp;P1;durP1;ratioP1;P2;durP2;ratioP2
17451;SDS011;8843;48.838;9.324;2023-02-28T00:00:29;3.23;;;1.97;;
17451;SDS011;8843;48.838;9.324;2023-02-28T00:02:56;2.37;;;1.93;;
17451;SDS011;8843;48.838;9.324;2023-02-28T00:05:24;2.33;;;2.13;;
17451;SDS011;8843;48.838;9.324;2023-02-28T00:07:52;3.43;;;2.00;;
17451;SDS011;8843;48.838;9.324;2023-02-28T00:10:20;2.30;;;2.10;;
17451;SDS011;8843;48.838;9.324;2023-02-28T00:12:50;2.33;;;1.90;;
17451;SDS011;8843;48.838;9.324;2023-02-28T00:15:17;4.97;;;1.97;;
17451;SDS011;8843;48.838;9.324;2023-02-28T00:17:44;2.50;;;2.23;;
17451;SDS011;8843;48.838;9.324;2023-02-28T00:20:12;2.83;;;2.30;;
17451;SDS011;8843;48.838;9.324;2023-02-28T00:22:41;2.50;;;2.27;;
17451;SDS011;8843;48.838;9.324;2023-02-28T00:25:10;2.73;;;1.97;;
17451;SDS011;8843;48.838;9.324;2023-02-28T00:27:38;2.93;;;2.07;;
17451;SDS011;8843;48.838;9.324;2023-02-28T00:30:09;5.90;;;2.37;;
17451;SDS011;8843;48.838;9.324;2023-02-28T00:32:37;3.00;;;2.07;;
17451;SDS011;8843;48.838;9.324;2023-02-28T00:35:05;2.43;;;2.23;;
17451;SDS011;8843;48.838;9.324;2023-02-28T00:37:33;2.37;;;2.13;;
17451;SDS011;8843;48.838;9.324;2023-02-28T00:40:00;2.00;;;1.77;;
17451;SDS011;8843;48.838;9.324;2023-02-28T00:42:29;2.50;;;2.30;;
17451;SDS011;8843;48.838;9.324;2023-02-28T00:44:56;3.47;;;2.20;;
17451;SDS011;8843;48.838;9.324;2023-02-28T00:47:24;4.30;;;2.37;;
17451;SDS011;8843;48.838;9.324;2023-02-28T00:49:51;2.87;;;1.93;;
17451;SDS011;8843;48.838;9.324;2023-02-28T00:52:18;3.17;;;2.40;;
17451;SDS011;8843;48.838;9.324;2023-02-28T00:54:46;3.07;;;2.00;;
17451;SDS011;8843;48.838;9.324;2023-02-28T00:57:13;2.30;;;2.10;;
17451;SDS011;8843;48.838;9.324;2023-02-28T00:59:40;3.03;;;2.13;;
17451;SDS011;8843;48.838;9.324;2023-02-28T01:02:07;3.33;;;2.00;;
17451;SDS011;8843;48.838;9.324;2023-02-28T01:04:35;4.80;;;2.20;;
17451;SDS011;8843;48.838;9.324;2023-02-28T01:07:02;2.53;;;2.33;;
17451;SDS011;8843;48.838;9.324;2023-02-28T01:09:29;3.80;;;2.50;;
17451;SDS011;8843;48.838;9.324;2023-02-28T01:11:56;3.70;;;2.10;;
17451;SDS011;8843;48.838;9.324;2023-02-28T01:14:23;3.90;;;2.53;;
17451;SDS011;8843;48.838;9.324;2023-02-28T01:16:50;2.90;;;2.60;;
17451;SDS011;8843;48.838;9.324;2023-02-28T01:19:17;2.30;;;2.10;;
17451;SDS011;8843;48.838;9.324;2023-02-28T01:21:45;4.47;;;2.50;;
17451;SDS011;8843;48.838;9.324;2023-02-28T01:24:12;3.03;;;2.40;;
17451;SDS011;8843;48.838;9.324;2023-02-28T01:26:39;2.43;;;2.23;;
17451;SDS011;8843;48.838;9.324;2023-02-28T01:29:06;2.27;;;2.07;;
17451;SDS011;8843;48.838;9.324;2023-02-28T01:31:33;2.40;;;2.20;;
17451;SDS011;8843;48.838;9.324;2023-02-28T01:34:00;4.33;;;2.20;;
17451;SDS011;8843;48.838;9.324;2023-02-28T01:36:27;3.47;;;2.47;;
17451;SDS011;8843;48.838;9.324;2023-02-28T01:38:56;3.20;;;2.60;;
17451;SDS011;8843;48.838;9.324;2023-02-28T01:41:23;3.37;;;2.30;;
17451;SDS011;8843;48.838;9.324;2023-02-28T01:43:57;3.37;;;2.63;;
17451;SDS011;8843;48.838;9.324;2023-02-28T01:46:28;2.97;;;2.37;;
17451;SDS011;8843;48.838;9.324;2023-02-28T01:48:58;2.80;;;2.20;;
17451;SDS011;8843;48.838;9.324;2023-02-28T01:51:39;4.20;;;2.60;;
17451;SDS011;8843;48.838;9.324;2023-02-28T01:54:14;5.13;;;2.53;;
17451;SDS011;8843;48.838;9.324;2023-02-28T01:56:44;2.73;;;2.43;;
17451;SDS011;8843;48.838;9.324;2023-02-28T01:59:14;5.40;;;2.60;;
17451;SDS011;8843;48.838;9.324;2023-02-28T02:01:47;6.00;;;3.00;;
17451;SDS011;8843;48.838;9.324;2023-02-28T02:04:14;2.73;;;2.20;;
17451;SDS011;8843;48.838;9.324;2023-02-28T02:06:42;2.77;;;2.57;;
17451;SDS011;8843;48.838;9.324;2023-02-28T02:09:13;3.20;;;2.60;;
17451;SDS011;8843;48.838;9.324;2023-02-28T02:11:40;3.17;;;2.87;;
17451;SDS011;8843;48.838;9.324;2023-02-28T02:14:16;2.50;;;2.30;;
17451;SDS011;8843;48.838;9.324;2023-02-28T02:17:03;3.37;;;2.80;;
17451;SDS011;8843;48.838;9.324;2023-02-28T02:22:47;3.17;;;2.53;;
17451;SDS011;8843;48.838;9.324;2023-02-28T02:25:36;3.00;;;2.73;;
17451;SDS011;8843;48.838;9.324;2023-02-28T02:28:16;3.83;;;2.73;;
17451;SDS011;8843;48.838;9.324;2023-02-28T02:31:14;4.07;;;2.87;;
17451;SDS011;8843;48.838;9.324;2023-02-28T02:34:18;3.13;;;2.70;;
17451;SDS011;8843;48.838;9.324;2023-02-28T02:36:53;5.43;;;2.90;;
17451;SDS011;8843;48.838;9.324;2023-02-28T02:39:34;3.27;;;2.80;;
17451;SDS011;8843;48.838;9.324;2023-02-28T02:42:09;3.23;;;2.93;;
17451;SDS011;8843;48.838;9.324;2023-02-28T02:44:42;3.93;;;2.60;;
17451;SDS011;8843;48.838;9.324;2023-02-28T02:47:14;3.27;;;2.70;;
17451;SDS011;8843;48.838;9.324;2023-02-28T02:49:45;5.27;;;3.57;;
17451;SDS011;8843;48.838;9.324;2023-02-28T02:52:15;3.37;;;3.07;;
17451;SDS011;8843;48.838;9.324;2023-02-28T02:54:46;4.00;;;2.70;;
17451;SDS011;8843;48.838;9.324;2023-02-28T02:57:20;2.60;;;2.40;;
17451;SDS011;8843;48.838;9.324;2023-02-28T02:59:50;4.73;;;3.00;;
17451;SDS011;8843;48.838;9.324;2023-02-28T03:02:20;6.83;;;3.33;;
17451;SDS011;8843;48.838;9.324;2023-02-28T03:04:52;3.90;;;2.93;;
17451;SDS011;8843;48.838;9.324;2023-02-28T03:07:25;4.53;;;2.90;;
17451;SDS011;8843;48.838;9.324;2023-02-28T03:09:53;4.37;;;3.20;;
17451;SDS011;8843;48.838;9.324;2023-02-28T03:12:21;3.33;;;3.00;;
17451;SDS011;8843;48.838;9.324;2023-02-28T03:14:56;3.87;;;3.17;;
17451;SDS011;8843;48.838;9.324;2023-02-28T03:17:34;4.80;;;3.00;;
17451;SDS011;8843;48.838;9.324;2023-02-28T03:20:30;5.20;;;3.07;;
17451;SDS011;8843;48.838;9.324;2023-02-28T03:23:11;5.57;;;3.37;;
17451;SDS011;8843;48.838;9.324;2023-02-28T03:25:46;2.60;;;2.40;;
17451;SDS011;8843;48.838;9.324;2023-02-28T03:28:24;4.77;;;2.93;;
17451;SDS011;8843;48.838;9.324;2023-02-28T03:30:58;3.33;;;3.03;;
17451;SDS011;8843;48.838;9.324;2023-02-28T03:33:30;4.20;;;3.20;;
17451;SDS011;8843;48.838;9.324;2023-02-28T03:36:04;4.40;;;3.03;;
17451;SDS011;8843;48.838;9.324;2023-02-28T03:38:35;4.50;;;3.07;;
17451;SDS011;8843;48.838;9.324;2023-02-28T03:41:07;3.43;;;2.93;;
17451;SDS011;8843;48.838;9.324;2023-02-28T03:43:40;4.20;;;3.27;;
17451;SDS011;8843;48.838;9.324;2023-02-28T03:46:12;3.80;;;3.30;;
17451;SDS011;8843;48.838;9.324;2023-02-28T03:48:43;5.07;;;3.23;;
17451;SDS011;8843;48.838;9.324;2023-02-28T03:51:14;3.93;;;3.20;;
17451;SDS011;8843;48.838;9.324;2023-02-28T03:53:44;3.53;;;3.23;;
17451;SDS011;8843;48.838;9.324;2023-02-28T03:56:18;3.63;;;3.20;;
17451;SDS011;8843;48.838;9.324;2023-02-28T03:58:49;4.50;;;3.30;;
17451;SDS011;8843;48.838;9.324;2023-02-28T04:01:22;4.27;;;3.87;;
17451;SDS011;8843;48.838;9.324;2023-02-28T04:03:54;3.80;;;3.20;;
17451;SDS011;8843;48.838;9.324;2023-02-28T04:06:22;3.90;;;3.10;;
17451;SDS011;8843;48.838;9.324;2023-02-28T04:08:50;3.13;;;2.70;;
17451;SDS011;8843;48.838;9.324;2023-02-28T04:11:22;4.33;;;3.43;;
17451;SDS011;8843;48.838;9.324;2023-02-28T04:13:54;5.50;;;3.30;;
17451;SDS011;8843;48.838;9.324;2023-02-28T04:16:20;4.57;;;3.07;;
17451;SDS011;8843;48.838;9.324;2023-02-28T04:18:47;4.50;;;3.20;;
17451;SDS011;8843;48.838;9.324;2023-02-28T04:21:14;3.23;;;2.70;;
17451;SDS011;8843;48.838;9.324;2023-02-28T04:23:46;5.47;;;3.47;;
17451;SDS011;8843;48.838;9.324;2023-02-28T04:26:13;3.53;;;3.10;;
17451;SDS011;8843;48.838;9.324;2023-02-28T04:28:40;3.80;;;3.47;;
17451;SDS011;8843;48.838;9.324;2023-02-28T04:31:08;6.07;;;3.60;;
17451;SDS011;8843;48.838;9.324;2023-02-28T04:33:35;4.80;;;3.30;;
17451;SDS011;8843;48.838;9.324;2023-02-28T04:36:03;4.97;;;3.43;;
17451;SDS011;8843;48.838;9.324;2023-02-28T04:38:32;3.90;;;3.43;;
17451;SDS011;8843;48.838;9.324;2023-02-28T04:41:01;3.77;;;3.43;;
17451;SDS011;8843;48.838;9.324;2023-02-28T04:43:29;4.07;;;3.07;;
17451;SDS011;8843;48.838;9.324;2023-02-28T04:45:57;3.27;;;2.97;;
17451;SDS011;8843;48.838;9.324;2023-02-28T04:48:27;5.13;;;3.40;;
17451;SDS011;8843;48.838;9.324;2023-02-28T04:50:55;4.20;;;3.30;;
17451;SDS011;8843;48.838;9.324;2023-02-28T04:53:26;5.20;;;3.20;;
17451;SDS011;8843;48.838;9.324;2023-02-28T04:55:54;4.43;;;3.80;;
17451;SDS011;8843;48.838;9.324;2023-02-28T04:58:22;5.93;;;3.47;;
17451;SDS011;8843;48.838;9.324;2023-02-28T05:00:49;3.77;;;3.07;;
17451;SDS011;8843;48.838;9.324;2023-02-28T05:03:16;4.40;;;3.50;;
17451;SDS011;8843;48.838;9.324;2023-02-28T05:05:43;4.10;;;3.13;;
17451;SDS011;8843;48.838;9.324;2023-02-28T05:08:10;6.40;;;3.67;;
17451;SDS011;8843;48.838;9.324;2023-02-28T05:10:37;4.37;;;3.47;;
17451;SDS011;8843;48.838;9.324;2023-02-28T05:13:04;6.13;;;4.00;;
17451;SDS011;8843;48.838;9.324;2023-02-28T05:15:33;5.77;;;3.30;;
17451;SDS011;8843;48.838;9.324;2023-02-28T05:18:00;4.63;;;3.73;;
17451;SDS011;8843;48.838;9.324;2023-02-28T05:20:27;3.50;;;3.07;;
17451;SDS011;8843;48.838;9.324;2023-02-28T05:22:53;4.57;;;3.67;;
17451;SDS011;8843;48.838;9.324;2023-02-28T05:25:21;4.80;;;4.30;;
17451;SDS011;8843;48.838;9.324;2023-02-28T05:27:48;4.90;;;3.77;;
17451;SDS011;8843;48.838;9.324;2023-02-28T05:30:16;5.00;;;3.80;;
17451;SDS011;8843;48.838;9.324;2023-02-28T05:32:49;4.63;;;4.10;;
17451;SDS011;8843;48.838;9.324;2023-02-28T05:35:17;4.53;;;3.50;;
17451;SDS011;8843;48.838;9.324;2023-02-28T05:37:44;3.93;;;3.57;;
17451;SDS011;8843;48.838;9.324;2023-02-28T05:40:11;4.30;;;3.90;;
17451;SDS011;8843;48.838;9.324;2023-02-28T05:42:38;5.63;;;3.80;;
17451;SDS011;8843;48.838;9.324;2023-02-28T05:45:06;3.77;;;3.47;;
17451;SDS011;8843;48.838;9.324;2023-02-28T05:47:34;5.77;;;3.57;;
17451;SDS011;8843;48.838;9.324;2023-02-28T05:50:02;4.70;;;4.20;;
17451;SDS011;8843;48.838;9.324;2023-02-28T05:52:30;6.07;;;4.20;;
17451;SDS011;8843;48.838;9.324;2023-02-28T05:54:57;4.37;;;3.97;;
17451;SDS011;8843;48.838;9.324;2023-02-28T05:57:24;5.33;;;4.43;;
17451;SDS011;8843;48.838;9.324;2023-02-28T05:59:51;6.50;;;4.77;;
17451;SDS011;8843;48.838;9.324;2023-02-28T06:02:18;7.10;;;4.10;;
17451;SDS011;8843;48.838;9.324;2023-02-28T06:04:45;6.20;;;3.77;;
17451;SDS011;8843;48.838;9.324;2023-02-28T06:07:13;5.00;;;3.93;;
17451;SDS011;8843;48.838;9.324;2023-02-28T06:09:42;5.43;;;4.00;;
17451;SDS011;8843;48.838;9.324;2023-02-28T06:12:09;6.10;;;4.43;;
17451;SDS011;8843;48.838;9.324;2023-02-28T06:14:36;5.47;;;3.97;;
17451;SDS011;8843;48.838;9.324;2023-02-28T06:17:04;4.10;;;3.57;;
17451;SDS011;8843;48.838;9.324;2023-02-28T06:19:31;5.63;;;3.73;;
17451;SDS011;8843;48.838;9.324;2023-02-28T06:21:58;5.60;;;4.40;;
17451;SDS011;8843;48.838;9.324;2023-02-28T06:24:27;8.40;;;5.10;;
17451;SDS011;8843;48.838;9.324;2023-02-28T06:26:54;4.43;;;4.03;;
17451;SDS011;8843;48.838;9.324;2023-02-28T06:29:21;5.00;;;4.07;;
17451;SDS011;8843;48.838;9.324;2023-02-28T06:31:48;5.87;;;4.63;;
17451;SDS011;8843;48.838;9.324;2023-02-28T06:34:15;5.10;;;4.20;;
17451;SDS011;8843;48.838;9.324;2023-02-28T06:36:42;7.03;;;5.17;;
17451;SDS011;8843;48.838;9.324;2023-02-28T06:39:09;8.00;;;4.30;;
17451;SDS011;8843;48.838;9.324;2023-02-28T06:41:38;6.60;;;5.00;;
17451;SDS011;8843;48.838;9.324;2023-02-28T06:44:12;5.83;;;4.53;;
17451;SDS011;8843;48.838;9.324;2023-02-28T06:46:53;5.63;;;4.70;;
17451;SDS011;8843;48.838;9.324;2023-02-28T06:49:23;5.60;;;4.07;;
17451;SDS011;8843;48.838;9.324;2023-02-28T06:51:50;7.13;;;4.70;;
17451;SDS011;8843;48.838;9.324;2023-02-28T06:54:17;4.83;;;3.90;;
17451;SDS011;8843;48.838;9.324;2023-02-28T06:56:45;6.87;;;4.50;;
17451;SDS011;8843;48.838;9.324;2023-02-28T06:59:12;6.67;;;4.90;;
17451;SDS011;8843;48.838;9.324;2023-02-28T07:01:39;5.77;;;4.37;;
17451;SDS011;8843;48.838;9.324;2023-02-28T07:04:07;8.07;;;4.00;;
17451;SDS011;8843;48.838;9.324;2023-02-28T07:06:34;6.47;;;5.07;;
17451;SDS011;8843;48.838;9.324;2023-02-28T07:09:00;7.60;;;4.83;;
17451;SDS011;8843;48.838;9.324;2023-02-28T07:11:29;7.80;;;5.03;;
17451;SDS011;8843;48.838;9.324;2023-02-28T07:13:57;7.77;;;5.23;;
17451;SDS011;8843;48.838;9.324;2023-02-28T07:16:24;5.77;;;5.00;;
17451;SDS011;8843;48.838;9.324;2023-02-28T07:18:52;7.87;;;5.30;;
17451;SDS011;8843;48.838;9.324;2023-02-28T07:21:19;6.40;;;5.03;;
17451;SDS011;8843;48.838;9.324;2023-02-28T07:23:47;7.40;;;5.07;;
17451;SDS011;8843;48.838;9.324;2023-02-28T07:26:15;5.50;;;4.43;;
17451;SDS011;8843;48.838;9.324;2023-02-28T07:28:43;5.80;;;4.70;;
17451;SDS011;8843;48.838;9.324;2023-02-28T07:31:13;6.43;;;5.10;;
17451;SDS011;8843;48.838;9.324;2023-02-28T07:33:42;6.80;;;5.23;;
17451;SDS011;8843;48.838;9.324;2023-02-28T07:36:13;7.23;;;4.57;;
17451;SDS011;8843;48.838;9.324;2023-02-28T07:38:44;5.80;;;4.70;;
17451;SDS011;8843;48.838;9.324;2023-02-28T07:41:13;5.47;;;4.73;;
17451;SDS011;8843;48.838;9.324;2023-02-28T07:43:40;6.83;;;4.80;;
17451;SDS011;8843;48.838;9.324;2023-02-28T07:46:08;6.67;;;5.07;;
17451;SDS011;8843;48.838;9.324;2023-02-28T07:48:38;6.23;;;5.20;;
17451;SDS011;8843;48.838;9.324;2023-02-28T07:51:05;7.57;;;4.97;;
17451;SDS011;8843;48.838;9.324;2023-02-28T07:53:32;8.00;;;5.00;;
17451;SDS011;8843;48.838;9.324;2023-02-28T07:55:59;7.37;;;5.17;;
17451;SDS011;8843;48.838;9.324;2023-02-28T07:58:28;7.47;;;5.43;;
17451;SDS011;8843;48.838;9.324;2023-02-28T08:00:56;9.00;;;5.40;;
17451;SDS011;8843;48.838;9.324;2023-02-28T08:03:23;4.87;;;4.13;;
17451;SDS011;8843;48.838;9.324;2023-02-28T08:05:51;6.30;;;4.97;;
17451;SDS011;8843;48.838;9.324;2023-02-28T08:08:18;7.13;;;5.10;;
17451;SDS011;8843;48.838;9.324;2023-02-28T08:10:45;6.73;;;5.13;;
17451;SDS011;8843;48.838;9.324;2023-02-28T08:13:12;8.37;;;5.30;;
17451;SDS011;8843;48.838;9.324;2023-02-28T08:15:40;7.73;;;5.70;;
17451;SDS011;8843;48.838;9.324;2023-02-28T08:18:07;10.57;;;5.77;;
17451;SDS011;8843;48.838;9.324;2023-02-28T08:20:34;7.50;;;5.03;;
17451;SDS011;8843;48.838;9.324;2023-02-28T08:23:02;6.03;;;5.20;;
17451;SDS011;8843;48.838;9.324;2023-02-28T08:25:29;7.93;;;5.33;;
17451;SDS011;8843;48.838;9.324;2023-02-28T08:27:56;6.17;;;5.00;;
17451;SDS011;8843;48.838;9.324;2023-02-28T08:30:23;7.67;;;6.10;;
17451;SDS011;8843;48.838;9.324;2023-02-28T08:32:50;8.13;;;5.27;;
17451;SDS011;8843;48.838;9.324;2023-02-28T08:35:17;5.77;;;5.17;;
17451;SDS011;8843;48.838;9.324;2023-02-28T08:37:44;6.37;;;5.50;;
17451;SDS011;8843;48.838;9.324;2023-02-28T08:40:14;7.53;;;5.23;;
17451;SDS011;8843;48.838;9.324;2023-02-28T08:42:43;8.03;;;6.00;;
17451;SDS011;8843;48.838;9.324;2023-02-28T08:45:10;8.03;;;5.83;;
17451;SDS011;8843;48.838;9.324;2023-02-28T08:47:37;6.77;;;5.37;;
17451;SDS011;8843;48.838;9.324;2023-02-28T08:50:05;6.70;;;5.73;;
17451;SDS011;8843;48.838;9.324;2023-02-28T08:52:32;6.87;;;5.37;;
17451;SDS011;8843;48.838;9.324;2023-02-28T08:54:59;6.97;;;5.17;;
17451;SDS011;8843;48.838;9.324;2023-02-28T08:57:27;8.70;;;5.77;;
17451;SDS011;8843;48.838;9.324;2023-02-28T08:59:54;7.93;;;5.90;;
17451;SDS011;8843;48.838;9.324;2023-02-28T09:02:22;7.70;;;5.43;;
17451;SDS011;8843;48.838;9.324;2023-02-28T09:04:49;7.10;;;5.27;;
17451;SDS011;8843;48.838;9.324;2023-02-28T09:07:16;6.60;;;5.30;;
17451;SDS011;8843;48.838;9.324;2023-02-28T09:09:42;7.60;;;6.10;;
17451;SDS011;8843;48.838;9.324;2023-02-28T09:12:19;7.27;;;5.73;;
17451;SDS011;8843;48.838;9.324;2023-02-28T09:14:48;7.33;;;6.00;;
17451;SDS011;8843;48.838;9.324;2023-02-28T09:17:14;8.70;;;5.70;;
17451;SDS011;8843;48.838;9.324;2023-02-28T09:19:41;7.70;;;6.23;;
17451;SDS011;8843;48.838;9.324;2023-02-28T09:22:09;9.47;;;5.80;;
17451;SDS011;8843;48.838;9.324;2023-02-28T09:24:36;7.97;;;5.70;;
17451;SDS011;8843;48.838;9.324;2023-02-28T09:27:03;7.03;;;5.10;;
17451;SDS011;8843;48.838;9.324;2023-02-28T09:29:30;6.90;;;5.47;;
17451;SDS011;8843;48.838;9.324;2023-02-28T09:31:59;8.60;;;6.30;;
17451;SDS011;8843;48.838;9.324;2023-02-28T09:34:26;9.13;;;5.80;;
17451;SDS011;8843;48.838;9.324;2023-02-28T09:36:55;8.07;;;5.47;;
17451;SDS011;8843;48.838;9.324;2023-02-28T09:39:23;8.83;;;6.53;;
17451;SDS011;8843;48.838;9.324;2023-02-28T09:41:52;8.70;;;6.00;;
17451;SDS011;8843;48.838;9.324;2023-02-28T09:44:22;6.87;;;5.57;;
17451;SDS011;8843;48.838;9.324;2023-02-28T09:46:56;7.13;;;6.23;;
17451;SDS011;8843;48.838;9.324;2023-02-28T09:49:28;7.30;;;6.03;;
17451;SDS011;8843;48.838;9.324;2023-02-28T09:52:04;7.63;;;6.17;;
17451;SDS011;8843;48.838;9.324;2023-02-28T09:54:35;9.77;;;6.63;;
17451;SDS011;8843;48.838;9.324;2023-02-28T09:57:05;7.20;;;5.90;;
17451;SDS011;8843;48.838;9.324;2023-02-28T09:59:47;9.00;;;5.90;;
17451;SDS011;8843;48.838;9.324;2023-02-28T10:02:44;9.07;;;6.63;;
17451;SDS011;8843;48.838;9.324;2023-02-28T10:05:18;12.90;;;7.23;;
17451;SDS011;8843;48.838;9.324;2023-02-28T10:07:50;12.53;;;6.67;;
17451;SDS011;8843;48.838;9.324;2023-02-28T10:10:27;9.23;;;6.37;;
17451;SDS011;8843;48.838;9.324;2023-02-28T10:12:59;7.30;;;5.33;;
17451;SDS011;8843;48.838;9.324;2023-02-28T10:15:30;8.73;;;6.53;;
17451;SDS011;8843;48.838;9.324;2023-02-28T10:18:01;10.83;;;7.23;;
17451;SDS011;8843;48.838;9.324;2023-02-28T10:20:33;7.93;;;6.47;;
17451;SDS011;8843;48.838;9.324;2023-02-28T10:23:07;11.07;;;7.80;;
17451;SDS011;8843;48.838;9.324;2023-02-28T10:25:39;8.93;;;6.67;;
17451;SDS011;8843;48.838;9.324;2023-02-28T10:28:09;9.37;;;6.97;;
17451;SDS011;8843;48.838;9.324;2023-02-28T10:30:38;9.63;;;6.10;;
17451;SDS011;8843;48.838;9.324;2023-02-28T10:33:09;9.50;;;7.07;;
17451;SDS011;8843;48.838;9.324;2023-02-28T10:35:48;10.70;;;6.27;;
17451;SDS011;8843;48.838;9.324;2023-02-28T10:38:16;13.37;;;6.77;;
17451;SDS011;8843;48.838;9.324;2023-02-28T10:40:44;8.90;;;6.63;;
17451;SDS011;8843;48.838;9.324;2023-02-28T10:43:18;9.30;;;6.27;;
17451;SDS011;8843;48.838;9.324;2023-02-28T10:48:42;7.43;;;5.90;;
17451;SDS011;8843;48.838;9.324;2023-02-28T10:51:13;10.50;;;7.00;;
17451;SDS011;8843;48.838;9.324;2023-02-28T10:53:48;8.00;;;6.37;;
17451;SDS011;8843;48.838;9.324;2023-02-28T10:56:17;10.23;;;7.23;;
17451;SDS011;8843;48.838;9.324;2023-02-28T10:58:50;9.03;;;7.17;;
17451;SDS011;8843;48.838;9.324;2023-02-28T11:01:20;8.30;;;6.57;;
17451;SDS011;8843;48.838;9.324;2023-02-28T11:03:50;10.10;;;7.13;;
17451;SDS011;8843;48.838;9.324;2023-02-28T11:06:19;9.00;;;7.63;;
17451;SDS011;8843;48.838;9.324;2023-02-28T11:08:49;10.23;;;7.00;;
17451;SDS011;8843;48.838;9.324;2023-02-28T11:11:18;9.53;;;7.83;;
17451;SDS011;8843;48.838;9.324;2023-02-28T11:13:53;10.27;;;7.30;;
17451;SDS011;8843;48.838;9.324;2023-02-28T11:16:31;10.83;;;7.90;;
17451;SDS011;8843;48.838;9.324;2023-02-28T11:19:01;9.27;;;7.37;;
17451;SDS011;8843;48.838;9.324;2023-02-28T11:21:31;9.43;;;7.23;;
17451;SDS011;8843;48.838;9.324;2023-02-28T11:24:00;9.53;;;7.83;;
17451;SDS011;8843;48.838;9.324;2023-02-28T11:26:41;9.17;;;8.00;;
17451;SDS011;8843;48.838;9.324;2023-02-28T11:29:11;12.67;;;6.97;;
17451;SDS011;8843;48.838;9.324;2023-02-28T11:31:46;9.00;;;7.13;;
17451;SDS011;8843;48.838;9.324;2023-02-28T11:34:30;6.83;;;6.17;;
17451;SDS011;8843;48.838;9.324;2023-02-28T11:36:59;9.23;;;7.07;;
17451;SDS011;8843;48.838;9.324;2023-02-28T11:39:30;11.17;;;6.80;;
17451;SDS011;8843;48.838;9.324;2023-02-28T11:42:04;8.43;;;6.50;;
17451;SDS011;8843;48.838;9.324;2023-02-28T11:45:08;9.33;;;6.87;;
17451;SDS011;8843;48.838;9.324;2023-02-28T11:47:47;8.47;;;6.70;;
17451;SDS011;8843;48.838;9.324;2023-02-28T11:50:27;7.93;;;6.00;;
17451;SDS011;8843;48.838;9.324;2023-02-28T11:53:14;8.57;;;6.43;;
17451;SDS011;8843;48.838;9.324;2023-02-28T11:55:49;8.57;;;6.70;;
17451;SDS011;8843;48.838;9.324;2023-02-28T11:58:26;10.20;;;6.93;;
17451;SDS011;8843;48.838;9.324;2023-02-28T12:03:58;10.57;;;6.93;;
17451;SDS011;8843;48.838;9.324;2023-02-28T12:06:32;8.90;;;6.53;;
17451;SDS011;8843;48.838;9.324;2023-02-28T12:12:14;9.33;;;6.60;;
17451;SDS011;8843;48.838;9.324;2023-02-28T12:20:49;7.50;;;6.70;;
17451;SDS011;8843;48.838;9.324;2023-02-28T12:23:29;7.73;;;5.97;;
17451;SDS011;8843;48.838;9.324;2023-02-28T12:26:16;8.63;;;6.03;;
17451;SDS011;8843;48.838;9.324;2023-02-28T12:28:49;8.13;;;5.77;;
17451;SDS011;8843;48.838;9.324;2023-02-28T12:31:20;8.80;;;5.73;;
17451;SDS011;8843;48.838;9.324;2023-02-28T12:33:51;7.97;;;6.57;;
17451;SDS011;8843;48.838;9.324;2023-02-28T12:36:20;9.47;;;6.33;;
17451;SDS011;8843;48.838;9.324;2023-02-28T12:38:51;8.47;;;6.20;;
17451;SDS011;8843;48.838;9.324;2023-02-28T12:41:27;7.90;;;5.70;;
17451;SDS011;8843;48.838;9.324;2023-02-28T12:44:00;8.83;;;6.03;;
17451;SDS011;8843;48.838;9.324;2023-02-28T12:46:30;7.93;;;6.03;;
17451;SDS011;8843;48.838;9.324;2023-02-28T12:49:00;8.10;;;6.57;;
17451;SDS011;8843;48.838;9.324;2023-02-28T12:51:32;9.23;;;5.90;;
17451;SDS011;8843;48.838;9.324;2023-02-28T12:54:04;6.53;;;5.40;;
17451;SDS011;8843;48.838;9.324;2023-02-28T12:56:42;7.23;;;5.93;;
17451;SDS011;8843;48.838;9.324;2023-02-28T12:59:15;6.43;;;5.03;;
17451;SDS011;8843;48.838;9.324;2023-02-28T13:01:56;6.77;;;5.77;;
17451;SDS011;8843;48.838;9.324;2023-02-28T13:04:43;6.80;;;5.77;;
17451;SDS011;8843;48.838;9.324;2023-02-28T13:07:35;6.43;;;4.97;;
17451;SDS011;8843;48.838;9.324;2023-02-28T13:10:13;8.63;;;6.00;;
17451;SDS011;8843;48.838;9.324;2023-02-28T13:12:47;9.60;;;6.67;;
17451;SDS011;8843;48.838;9.324;2023-02-28T13:15:16;9.87;;;6.30;;
17451;SDS011;8843;48.838;9.324;2023-02-28T13:17:48;6.70;;;5.90;;
17451;SDS011;8843;48.838;9.324;2023-02-28T13:20:18;7.87;;;5.93;;
17451;SDS011;8843;48.838;9.324;2023-02-28T13:22:47;8.50;;;5.97;;
17451;SDS011;8843;48.838;9.324;2023-02-28T13:31:33;6.40;;;5.40;;
17451;SDS011;8843;48.838;9.324;2023-02-28T13:34:39;8.37;;;5.90;;
17451;SDS011;8843;48.838;9.324;2023-02-28T13:40:14;7.17;;;5.87;;
17451;SDS011;8843;48.838;9.324;2023-02-28T13:42:54;9.83;;;6.17;;
17451;SDS011;8843;48.838;9.324;2023-02-28T13:45:25;7.33;;;5.80;;
17451;SDS011;8843;48.838;9.324;2023-02-28T13:47:57;6.87;;;5.17;;
17451;SDS011;8843;48.838;9.324;2023-02-28T13:50:30;7.43;;;5.97;;
17451;SDS011;8843;48.838;9.324;2023-02-28T13:56:25;6.57;;;5.30;;
17451;SDS011;8843;48.838;9.324;2023-02-28T13:59:01;7.33;;;5.67;;
17451;SDS011;8843;48.838;9.324;2023-02-28T14:01:45;8.20;;;6.00;;
17451;SDS011;8843;48.838;9.324;2023-02-28T14:07:26;8.93;;;6.17;;
17451;SDS011;8843;48.838;9.324;2023-02-28T14:09:57;8.97;;;5.93;;
17451;SDS011;8843;48.838;9.324;2023-02-28T14:15:41;6.67;;;5.50;;
17451;SDS011;8843;48.838;9.324;2023-02-28T14:18:19;7.00;;;5.67;;
17451;SDS011;8843;48.838;9.324;2023-02-28T14:20:52;8.00;;;6.30;;
17451;SDS011;8843;48.838;9.324;2023-02-28T14:23:35;10.03;;;6.50;;
17451;SDS011;8843;48.838;9.324;2023-02-28T14:26:20;7.87;;;6.20;;
17451;SDS011;8843;48.838;9.324;2023-02-28T14:29:02;7.63;;;5.83;;
17451;SDS011;8843;48.838;9.324;2023-02-28T14:31:44;8.07;;;5.97;;
17451;SDS011;8843;48.838;9.324;2023-02-28T14:34:30;7.80;;;6.57;;
17451;SDS011;8843;48.838;9.324;2023-02-28T14:37:09;7.07;;;5.60;;
17451;SDS011;8843;48.838;9.324;2023-02-28T14:39:41;7.03;;;5.33;;
17451;SDS011;8843;48.838;9.324;2023-02-28T14:44:54;7.17;;;5.93;;
17451;SDS011;8843;48.838;9.324;2023-02-28T14:47:22;6.43;;;5.40;;
17451;SDS011;8843;48.838;9.324;2023-02-28T14:49:52;7.40;;;5.10;;
17451;SDS011;8843;48.838;9.324;2023-02-28T14:52:22;7.43;;;5.77;;
17451;SDS011;8843;48.838;9.324;2023-02-28T14:54:52;10.10;;;6.47;;
17451;SDS011;8843;48.838;9.324;2023-02-28T14:57:21;7.20;;;6.00;;
17451;SDS011;8843;48.838;9.324;2023-02-28T14:59:56;7.97;;;6.00;;
17451;SDS011;8843;48.838;9.324;2023-02-28T15:02:25;8.97;;;6.57;;
17451;SDS011;8843;48.838;9.324;2023-02-28T15:04:57;9.40;;;6.13;;
17451;SDS011;8843;48.838;9.324;2023-02-28T15:07:26;8.33;;;6.20;;
17451;SDS011;8843;48.838;9.324;2023-02-28T15:10:20;6.43;;;5.40;;
17451;SDS011;8843;48.838;9.324;2023-02-28T15:12:51;9.10;;;5.87;;
17451;SDS011;8843;48.838;9.324;2023-02-28T15:15:21;6.83;;;6.13;;
17451;SDS011;8843;48.838;9.324;2023-02-28T15:17:52;9.03;;;5.87;;
17451;SDS011;8843;48.838;9.324;2023-02-28T15:20:23;10.60;;;6.43;;
17451;SDS011;8843;48.838;9.324;2023-02-28T15:22:53;9.30;;;6.30;;
17451;SDS011;8843;48.838;9.324;2023-02-28T15:25:22;8.67;;;6.67;;
17451;SDS011;8843;48.838;9.324;2023-02-28T15:27:52;7.50;;;6.37;;
17451;SDS011;8843;48.838;9.324;2023-02-28T15:30:21;11.33;;;6.53;;
17451;SDS011;8843;48.838;9.324;2023-02-28T15:33:04;7.37;;;6.50;;
17451;SDS011;8843;48.838;9.324;2023-02-28T15:35:33;8.47;;;6.47;;
17451;SDS011;8843;48.838;9.324;2023-02-28T15:38:03;9.53;;;6.20;;
17451;SDS011;8843;48.838;9.324;2023-02-28T15:40:41;10.03;;;6.80;;
17451;SDS011;8843;48.838;9.324;2023-02-28T15:43:13;8.90;;;6.77;;
17451;SDS011;8843;48.838;9.324;2023-02-28T15:45:44;7.73;;;6.87;;
17451;SDS011;8843;48.838;9.324;2023-02-28T15:48:16;7.53;;;6.60;;
17451;SDS011;8843;48.838;9.324;2023-02-28T15:50:47;7.40;;;6.60;;
17451;SDS011;8843;48.838;9.324;2023-02-28T15:53:19;9.30;;;6.27;;
17451;SDS011;8843;48.838;9.324;2023-02-28T15:55:52;8.93;;;6.50;;
17451;SDS011;8843;48.838;9.324;2023-02-28T15:58:21;8.73;;;6.47;;
17451;SDS011;8843;48.838;9.324;2023-02-28T16:01:06;10.23;;;6.87;;
17451;SDS011;8843;48.838;9.324;2023-02-28T16:03:43;7.87;;;6.97;;